Time,TemperatureF,DewpointF,PressureIn,WindDirection,WindDirectionDegrees,WindSpeedMPH,WindSpeedGustMPH,Humidity,HourlyPrecipIn,Conditions,Clouds,dailyrainin,SoftwareType,DateUTC
2013-04-04 00:00:00,31.2,16.9,30.12,SW,221,1.0,2.0,55,0.00,,,0.00,Wunderground v.1.15,2013-04-04 04:00:00,
2013-04-04 00:02:00,31.2,16.9,30.12,SW,221,1.0,2.0,55,0.00,,,0.00,Wunderground v.1.15,2013-04-04 04:02:00,
2013-04-04 00:04:00,31.2,16.9,30.12,SW,221,1.0,2.0,55,0.00,,,0.00,Wunderground v.1.15,2013-04-04 04:04:00,
2013-04-04 00:08:00,31.0,15.8,30.12,SW,221,2.0,2.0,53,0.00,,,0.00,Wunderground v.1.15,2013-04-04 04:08:00,
2013-04-04 00:13:00,31.2,16.5,30.12,SW,221,0.0,2.0,54,0.00,,,0.00,Wunderground v.1.15,2013-04-04 04:13:00,
2013-04-04 00:18:00,31.0,16.3,30.12,SW,221,0.0,0.0,54,0.00,,,0.00,Wunderground v.1.15,2013-04-04 04:18:00,
2013-04-04 00:23:00,31.2,16.0,30.12,SW,221,0.0,1.0,53,0.00,,,0.00,Wunderground v.1.15,2013-04-04 04:23:00,
2013-04-04 00:29:00,30.7,16.8,30.13,SW,221,1.0,1.0,56,0.00,,,0.00,Wunderground v.1.15,2013-04-04 04:29:00,
2013-04-04 00:34:00,30.7,15.6,30.13,SW,228,0.0,1.0,53,0.00,,,0.00,Wunderground v.1.15,2013-04-04 04:34:00,
2013-04-04 00:39:00,30.6,15.5,30.13,SW,227,1.0,1.0,53,0.00,,,0.00,Wunderground v.1.15,2013-04-04 04:39:00,
2013-04-04 00:45:00,30.6,15.0,30.14,SW,227,1.0,1.0,52,0.00,,,0.00,Wunderground v.1.15,2013-04-04 04:45:00,
2013-04-04 00:51:00,30.4,17.0,30.14,SSW,213,0.0,1.0,57,0.00,,,0.00,Wunderground v.1.15,2013-04-04 04:51:00,
2013-04-04 00:57:00,30.7,17.3,30.14,West,263,1.0,1.0,57,0.00,,,0.00,Wunderground v.1.15,2013-04-04 04:57:00,
2013-04-04 01:03:00,30.6,16.7,30.14,West,263,0.0,1.0,56,0.00,,,0.00,Wunderground v.1.15,2013-04-04 05:03:00,
2013-04-04 01:09:00,30.4,17.0,30.14,West,263,1.0,1.0,57,0.00,,,0.00,Wunderground v.1.15,2013-04-04 05:09:00,
2013-04-04 01:14:00,30.3,16.0,30.14,West,263,0.0,1.0,55,0.00,,,0.00,Wunderground v.1.15,2013-04-04 05:14:00,
2013-04-04 01:20:00,30.3,16.5,30.14,West,262,1.0,1.0,56,0.00,,,0.00,Wunderground v.1.15,2013-04-04 05:20:00,
2013-04-04 01:25:00,30.3,15.6,30.14,West,262,0.0,0.0,54,0.00,,,0.00,Wunderground v.1.15,2013-04-04 05:25:00,
2013-04-04 01:30:00,30.3,15.6,30.15,West,263,0.0,0.0,54,0.00,,,0.00,Wunderground v.1.15,2013-04-04 05:30:00,
2013-04-04 01:36:00,30.1,16.3,30.15,West,262,0.0,0.0,56,0.00,,,0.00,Wunderground v.1.15,2013-04-04 05:36:00,
2013-04-04 01:42:00,30.0,16.2,30.15,South,191,0.0,0.0,56,0.00,,,0.00,Wunderground v.1.15,2013-04-04 05:42:00,
2013-04-04 01:48:00,29.4,15.6,30.15,South,191,0.0,0.0,56,0.00,,,0.00,Wunderground v.1.15,2013-04-04 05:48:00,
2013-04-04 01:54:00,29.1,15.7,30.15,South,187,0.0,0.0,57,0.00,,,0.00,Wunderground v.1.15,2013-04-04 05:54:00,
2013-04-04 01:59:00,29.0,15.7,30.16,South,187,0.0,0.0,57,0.00,,,0.00,Wunderground v.1.15,2013-04-04 05:59:00,
2013-04-04 02:04:00,28.8,15.1,30.16,South,187,0.0,1.0,56,0.00,,,0.00,Wunderground v.1.15,2013-04-04 06:04:00,
2013-04-04 02:09:00,28.7,15.4,30.16,South,187,0.0,0.0,57,0.00,,,0.00,Wunderground v.1.15,2013-04-04 06:09:00,
2013-04-04 02:14:00,28.7,15.4,30.16,South,187,0.0,0.0,57,0.00,,,0.00,Wunderground v.1.15,2013-04-04 06:14:00,
2013-04-04 02:20:00,28.4,15.5,30.16,South,187,0.0,0.0,58,0.00,,,0.00,Wunderground v.1.15,2013-04-04 06:20:00,
2013-04-04 02:25:00,28.2,16.8,30.16,South,187,0.0,0.0,62,0.00,,,0.00,Wunderground v.1.15,2013-04-04 06:25:00,
2013-04-04 02:30:00,27.9,15.4,30.16,South,187,0.0,0.0,59,0.00,,,0.00,Wunderground v.1.15,2013-04-04 06:30:00,
2013-04-04 02:35:00,27.8,15.3,30.16,South,184,0.0,0.0,59,0.00,,,0.00,Wunderground v.1.15,2013-04-04 06:35:00,
2013-04-04 02:40:00,27.9,15.4,30.16,South,184,0.0,0.0,59,0.00,,,0.00,Wunderground v.1.15,2013-04-04 06:40:00,
2013-04-04 02:45:00,28.2,15.3,30.16,South,184,0.0,0.0,58,0.00,,,0.00,Wunderground v.1.15,2013-04-04 06:45:00,
2013-04-04 02:50:00,28.2,15.3,30.16,South,184,0.0,1.0,58,0.00,,,0.00,Wunderground v.1.15,2013-04-04 06:50:00,
2013-04-04 02:55:00,28.1,16.4,30.16,South,184,0.0,0.0,61,0.00,,,0.00,Wunderground v.1.15,2013-04-04 06:55:00,
2013-04-04 03:00:00,27.9,16.9,30.15,South,184,0.0,0.0,63,0.00,,,0.00,Wunderground v.1.15,2013-04-04 07:00:00,
2013-04-04 03:06:00,27.2,17.0,30.15,South,184,0.0,0.0,65,0.00,,,0.00,Wunderground v.1.15,2013-04-04 07:06:00,
2013-04-04 03:12:00,27.2,15.9,30.15,South,177,0.0,1.0,62,0.00,,,0.00,Wunderground v.1.15,2013-04-04 07:12:00,
2013-04-04 03:17:00,27.3,17.1,30.15,South,177,0.0,0.0,65,0.00,,,0.00,Wunderground v.1.15,2013-04-04 07:17:00,
2013-04-04 03:22:00,27.3,16.7,30.15,South,177,0.0,0.0,64,0.00,,,0.00,Wunderground v.1.15,2013-04-04 07:22:00,
2013-04-04 03:27:00,27.6,14.7,30.15,South,177,0.0,0.0,58,0.00,,,0.00,Wunderground v.1.15,2013-04-04 07:27:00,
2013-04-04 03:32:00,27.5,17.6,30.15,South,179,0.0,1.0,66,0.00,,,0.00,Wunderground v.1.15,2013-04-04 07:32:00,
2013-04-04 03:37:00,27.5,17.6,30.15,South,179,2.0,2.0,66,0.00,,,0.00,Wunderground v.1.15,2013-04-04 07:37:00,
2013-04-04 03:42:00,27.6,17.4,30.14,South,179,1.0,2.0,65,0.00,,,0.00,Wunderground v.1.15,2013-04-04 07:42:00,
2013-04-04 03:48:00,27.9,17.6,30.14,South,179,1.0,1.0,65,0.00,,,0.00,Wunderground v.1.15,2013-04-04 07:48:00,
2013-04-04 03:53:00,28.2,17.6,30.14,South,179,1.0,1.0,64,0.00,,,0.00,Wunderground v.1.15,2013-04-04 07:53:00,
2013-04-04 03:58:00,28.5,16.7,30.15,South,179,0.0,1.0,61,0.00,,,0.00,Wunderground v.1.15,2013-04-04 07:58:00,
2013-04-04 04:03:00,28.7,16.6,30.15,South,179,0.0,1.0,60,0.00,,,0.00,Wunderground v.1.15,2013-04-04 08:03:00,
2013-04-04 04:08:00,28.8,15.9,30.15,South,179,1.0,1.0,58,0.00,,,0.00,Wunderground v.1.15,2013-04-04 08:08:00,
2013-04-04 04:13:00,28.8,15.5,30.16,South,179,0.0,1.0,57,0.00,,,0.00,Wunderground v.1.15,2013-04-04 08:13:00,
2013-04-04 04:19:00,28.7,16.6,30.16,South,179,0.0,0.0,60,0.00,,,0.00,Wunderground v.1.15,2013-04-04 08:19:00,
2013-04-04 04:24:00,28.5,16.0,30.16,South,179,0.0,0.0,59,0.00,,,0.00,Wunderground v.1.15,2013-04-04 08:24:00,
2013-04-04 04:29:00,28.2,16.5,30.17,South,179,0.0,0.0,61,0.00,,,0.00,Wunderground v.1.15,2013-04-04 08:29:00,
2013-04-04 04:34:00,27.6,15.5,30.17,South,179,0.0,0.0,60,0.00,,,0.00,Wunderground v.1.15,2013-04-04 08:34:00,
2013-04-04 04:39:00,27.3,15.2,30.17,South,179,0.0,0.0,60,0.00,,,0.00,Wunderground v.1.15,2013-04-04 08:39:00,
2013-04-04 04:45:00,27.2,14.8,30.17,South,179,0.0,0.0,59,0.00,,,0.00,Wunderground v.1.15,2013-04-04 08:45:00,
2013-04-04 04:50:00,27.2,14.4,30.17,South,179,0.0,0.0,58,0.00,,,0.00,Wunderground v.1.15,2013-04-04 08:50:00,
2013-04-04 04:55:00,27.2,14.8,30.17,South,179,0.0,0.0,59,0.00,,,0.00,Wunderground v.1.15,2013-04-04 08:55:00,
2013-04-04 05:00:00,27.2,14.8,30.17,WNW,282,0.0,0.0,59,0.00,,,0.00,Wunderground v.1.15,2013-04-04 09:00:00,
2013-04-04 05:05:00,27.0,14.6,30.17,WNW,282,0.0,0.0,59,0.00,,,0.00,Wunderground v.1.15,2013-04-04 09:05:00,
2013-04-04 05:10:00,27.0,15.7,30.17,WNW,282,0.0,1.0,62,0.00,,,0.00,Wunderground v.1.15,2013-04-04 09:10:00,
2013-04-04 05:15:00,26.9,16.3,30.17,WNW,282,0.0,0.0,64,0.00,,,0.00,Wunderground v.1.15,2013-04-04 09:15:00,
2013-04-04 05:20:00,26.7,17.2,30.17,WNW,282,0.0,0.0,67,0.00,,,0.00,Wunderground v.1.15,2013-04-04 09:20:00,
2013-04-04 05:25:00,26.6,17.1,30.17,WNW,282,1.0,1.0,67,0.00,,,0.00,Wunderground v.1.15,2013-04-04 09:25:00,
2013-04-04 05:30:00,27.0,17.5,30.18,WNW,282,1.0,1.0,67,0.00,,,0.00,Wunderground v.1.15,2013-04-04 09:30:00,
2013-04-04 05:35:00,27.6,17.7,30.18,WNW,282,0.0,1.0,66,0.00,,,0.00,Wunderground v.1.15,2013-04-04 09:35:00,
2013-04-04 05:40:00,28.1,16.7,30.18,WNW,282,0.0,2.0,62,0.00,,,0.00,Wunderground v.1.15,2013-04-04 09:40:00,
2013-04-04 05:45:00,28.2,16.8,30.19,WNW,282,2.0,2.0,62,0.00,,,0.00,Wunderground v.1.15,2013-04-04 09:45:00,
2013-04-04 05:51:00,28.7,15.4,30.19,SW,230,0.0,2.0,57,0.00,,,0.00,Wunderground v.1.15,2013-04-04 09:51:00,
2013-04-04 05:56:00,28.7,16.2,30.19,SW,230,0.0,0.0,59,0.00,,,0.00,Wunderground v.1.15,2013-04-04 09:56:00,
2013-04-04 06:01:00,28.5,16.7,30.19,SW,230,1.0,1.0,61,0.00,,,0.00,Wunderground v.1.15,2013-04-04 10:01:00,
2013-04-04 06:06:00,28.4,16.7,30.19,SW,230,1.0,1.0,61,0.00,,,0.00,Wunderground v.1.15,2013-04-04 10:06:00,
2013-04-04 06:11:00,28.5,16.7,30.20,SW,230,0.0,1.0,61,0.00,,,0.00,Wunderground v.1.15,2013-04-04 10:11:00,
2013-04-04 06:16:00,28.4,16.3,30.20,SW,230,0.0,1.0,60,0.00,,,0.00,Wunderground v.1.15,2013-04-04 10:16:00,
2013-04-04 06:22:00,28.2,15.7,30.20,SW,230,0.0,1.0,59,0.00,,,0.00,Wunderground v.1.15,2013-04-04 10:22:00,
2013-04-04 06:27:00,28.4,15.5,30.21,SW,230,0.0,1.0,58,0.00,,,0.00,Wunderground v.1.15,2013-04-04 10:27:00,
2013-04-04 06:32:00,28.2,15.7,30.21,SW,230,0.0,1.0,59,0.00,,,0.00,Wunderground v.1.15,2013-04-04 10:32:00,
2013-04-04 06:37:00,28.1,16.0,30.21,SW,230,0.0,1.0,60,0.00,,,0.00,Wunderground v.1.15,2013-04-04 10:37:00,
2013-04-04 06:42:00,28.1,17.1,30.23,SW,230,0.0,1.0,63,0.00,,,0.00,Wunderground v.1.15,2013-04-04 10:42:00,
2013-04-04 06:47:00,28.4,15.9,30.23,SW,230,0.0,0.0,59,0.00,,,0.00,Wunderground v.1.15,2013-04-04 10:47:00,
2013-04-04 06:52:00,28.4,16.3,30.23,SW,230,0.0,0.0,60,0.00,,,0.00,Wunderground v.1.15,2013-04-04 10:52:00,
2013-04-04 06:57:00,27.9,16.9,30.23,ESE,112,0.0,1.0,63,0.00,,,0.00,Wunderground v.1.15,2013-04-04 10:57:00,
2013-04-04 07:02:00,27.6,16.6,30.23,ESE,112,0.0,1.0,63,0.00,,,0.00,Wunderground v.1.15,2013-04-04 11:02:00,
2013-04-04 07:08:00,27.6,17.0,30.23,ESE,112,0.0,0.0,64,0.00,,,0.00,Wunderground v.1.15,2013-04-04 11:08:00,
2013-04-04 07:13:00,27.9,15.8,30.23,SE,141,0.0,2.0,60,0.00,,,0.00,Wunderground v.1.15,2013-04-04 11:13:00,
2013-04-04 07:18:00,27.9,17.3,30.23,SE,141,0.0,1.0,64,0.00,,,0.00,Wunderground v.1.15,2013-04-04 11:18:00,
2013-04-04 07:23:00,27.8,18.6,30.23,SE,141,0.0,1.0,68,0.00,,,0.00,Wunderground v.1.15,2013-04-04 11:23:00,
2013-04-04 07:29:00,27.5,18.3,30.24,SE,141,0.0,0.0,68,0.00,,,0.00,Wunderground v.1.15,2013-04-04 11:29:00,
2013-04-04 07:34:00,27.6,18.4,30.24,SE,141,0.0,0.0,68,0.00,,,0.00,Wunderground v.1.15,2013-04-04 11:34:00,
2013-04-04 07:39:00,27.9,18.0,30.24,SE,141,0.0,0.0,66,0.00,,,0.00,Wunderground v.1.15,2013-04-04 11:39:00,
2013-04-04 07:44:00,28.2,17.6,30.25,ESE,105,0.0,1.0,64,0.00,,,0.00,Wunderground v.1.15,2013-04-04 11:44:00,
2013-04-04 07:49:00,28.5,18.6,30.25,ESE,105,0.0,1.0,66,0.00,,,0.00,Wunderground v.1.15,2013-04-04 11:49:00,
2013-04-04 07:55:00,29.1,16.9,30.25,ESE,105,0.0,1.0,60,0.00,,,0.00,Wunderground v.1.15,2013-04-04 11:55:00,
2013-04-04 08:00:00,29.7,16.7,30.26,ESE,108,0.0,1.0,58,0.00,,,0.00,Wunderground v.1.15,2013-04-04 12:00:00,
2013-04-04 08:05:00,30.1,16.7,30.26,ESE,108,0.0,0.0,57,0.00,,,0.00,Wunderground v.1.15,2013-04-04 12:05:00,
2013-04-04 08:10:00,30.4,16.1,30.26,ESE,108,0.0,0.0,55,0.00,,,0.00,Wunderground v.1.15,2013-04-04 12:10:00,
2013-04-04 08:15:00,30.7,17.3,30.26,ESE,108,0.0,0.0,57,0.00,,,0.00,Wunderground v.1.15,2013-04-04 12:15:00,
2013-04-04 08:20:00,31.2,15.2,30.26,SE,128,1.0,1.0,51,0.00,,,0.00,Wunderground v.1.15,2013-04-04 12:20:00,
2013-04-04 08:25:00,31.5,15.0,30.26,SE,128,0.0,0.0,50,0.00,,,0.00,Wunderground v.1.15,2013-04-04 12:25:00,
2013-04-04 08:30:00,31.8,15.7,30.26,SE,128,1.0,1.0,51,0.00,,,0.00,Wunderground v.1.15,2013-04-04 12:30:00,
2013-04-04 08:36:00,31.9,14.9,30.26,SE,128,0.0,0.0,49,0.00,,,0.00,Wunderground v.1.15,2013-04-04 12:36:00,
2013-04-04 08:41:00,32.2,15.2,30.26,SE,128,0.0,1.0,49,0.00,,,0.00,Wunderground v.1.15,2013-04-04 12:41:00,
2013-04-04 08:46:00,32.8,13.8,30.26,ENE,57,0.0,1.0,45,0.00,,,0.00,Wunderground v.1.15,2013-04-04 12:46:00,
2013-04-04 08:52:00,33.1,14.0,30.26,WSW,252,1.0,4.0,45,0.00,,,0.00,Wunderground v.1.15,2013-04-04 12:52:00,
2013-04-04 08:57:00,33.4,15.3,30.25,SSW,204,0.0,1.0,47,0.00,,,0.00,Wunderground v.1.15,2013-04-04 12:57:00,
2013-04-04 09:02:00,33.5,16.8,30.25,SSW,206,0.0,1.0,50,0.00,,,0.00,Wunderground v.1.15,2013-04-04 13:02:00,
2013-04-04 09:07:00,33.7,17.0,30.25,SSE,148,0.0,0.0,50,0.00,,,0.00,Wunderground v.1.15,2013-04-04 13:07:00,
2013-04-04 09:12:00,33.8,14.2,30.25,SSE,148,0.0,0.0,44,0.00,,,0.00,Wunderground v.1.15,2013-04-04 13:12:00,
2013-04-04 09:17:00,34.1,13.9,30.25,SE,142,0.0,0.0,43,0.00,,,0.00,Wunderground v.1.15,2013-04-04 13:17:00,
2013-04-04 09:22:00,34.4,12.0,30.25,South,186,0.0,0.0,39,0.00,,,0.00,Wunderground v.1.15,2013-04-04 13:22:00,
2013-04-04 09:27:00,34.7,12.2,30.25,West,279,0.0,0.0,39,0.00,,,0.00,Wunderground v.1.15,2013-04-04 13:27:00,
2013-04-04 09:32:00,35.0,14.2,30.25,WSW,251,0.0,0.0,42,0.00,,,0.00,Wunderground v.1.15,2013-04-04 13:32:00,
2013-04-04 09:37:00,35.3,13.3,30.25,WNW,303,0.0,0.0,40,0.00,,,0.00,Wunderground v.1.15,2013-04-04 13:37:00,
2013-04-04 09:43:00,35.5,14.1,30.25,West,269,0.0,0.0,41,0.00,,,0.00,Wunderground v.1.15,2013-04-04 13:43:00,
2013-04-04 09:48:00,35.8,14.4,30.25,WSW,239,0.0,0.0,41,0.00,,,0.00,Wunderground v.1.15,2013-04-04 13:48:00,
2013-04-04 09:53:00,35.9,10.9,30.25,WSW,239,0.0,0.0,35,0.00,,,0.00,Wunderground v.1.15,2013-04-04 13:53:00,
2013-04-04 09:58:00,36.0,13.4,30.25,WNW,302,0.0,0.0,39,0.00,,,0.00,Wunderground v.1.15,2013-04-04 13:58:00,
2013-04-04 10:04:00,36.5,12.7,30.25,WNW,302,0.0,0.0,37,0.00,,,0.00,Wunderground v.1.15,2013-04-04 14:04:00,
2013-04-04 10:09:00,36.6,12.7,30.25,NNW,330,0.0,0.0,37,0.00,,,0.00,Wunderground v.1.15,2013-04-04 14:09:00,
2013-04-04 10:14:00,36.8,12.9,30.24,NW,326,0.0,0.0,37,0.00,,,0.00,Wunderground v.1.15,2013-04-04 14:14:00,
2013-04-04 10:19:00,37.2,11.4,30.24,WNW,283,0.0,0.0,34,0.00,,,0.00,Wunderground v.1.15,2013-04-04 14:19:00,
2013-04-04 10:24:00,37.5,9.6,30.24,NNW,335,0.0,0.0,31,0.00,,,0.00,Wunderground v.1.15,2013-04-04 14:24:00,
2013-04-04 10:30:00,37.9,12.6,30.24,SW,227,0.0,0.0,35,0.00,,,0.00,Wunderground v.1.15,2013-04-04 14:30:00,
2013-04-04 10:35:00,38.2,10.9,30.24,NNW,335,0.0,0.0,32,0.00,,,0.00,Wunderground v.1.15,2013-04-04 14:35:00,
2013-04-04 10:40:00,38.9,12.2,30.24,WSW,258,2.0,2.0,33,0.00,,,0.00,Wunderground v.1.15,2013-04-04 14:40:00,
2013-04-04 10:46:00,39.2,10.3,30.24,WNW,297,1.0,1.0,30,0.00,,,0.00,Wunderground v.1.15,2013-04-04 14:46:00,
2013-04-04 10:51:00,39.9,11.7,30.24,WNW,292,1.0,2.0,31,0.00,,,0.00,Wunderground v.1.15,2013-04-04 14:51:00,
2013-04-04 10:56:00,40.2,9.6,30.24,SSW,206,0.0,2.0,28,0.00,,,0.00,Wunderground v.1.15,2013-04-04 14:56:00,
2013-04-04 11:01:00,40.1,9.6,30.22,South,169,1.0,2.0,28,0.00,,,0.00,Wunderground v.1.15,2013-04-04 15:01:00,
2013-04-04 11:06:00,41.1,10.4,30.22,WSW,245,0.0,1.0,28,0.00,,,0.00,Wunderground v.1.15,2013-04-04 15:06:00,
2013-04-04 11:11:00,41.3,10.6,30.21,NW,313,0.0,2.0,28,0.00,,,0.00,Wunderground v.1.15,2013-04-04 15:11:00,
2013-04-04 11:16:00,41.8,14.1,30.21,ENE,62,1.0,1.0,32,0.00,,,0.00,Wunderground v.1.15,2013-04-04 15:16:00,
2013-04-04 11:22:00,41.5,10.8,30.21,West,269,0.0,4.0,28,0.00,,,0.00,Wunderground v.1.15,2013-04-04 15:22:00,
2013-04-04 11:27:00,42.3,10.6,30.20,West,276,1.0,1.0,27,0.00,,,0.00,Wunderground v.1.15,2013-04-04 15:27:00,
2013-04-04 11:32:00,42.2,9.7,30.20,West,266,0.0,2.0,26,0.00,,,0.00,Wunderground v.1.15,2013-04-04 15:32:00,
2013-04-04 11:37:00,42.3,10.6,30.20,SW,230,0.0,2.0,27,0.00,,,0.00,Wunderground v.1.15,2013-04-04 15:37:00,
2013-04-04 11:42:00,42.8,11.1,30.19,SE,142,1.0,2.0,27,0.00,,,0.00,Wunderground v.1.15,2013-04-04 15:42:00,
2013-04-04 11:48:00,42.6,10.1,30.19,South,173,1.0,4.0,26,0.00,,,0.00,Wunderground v.1.15,2013-04-04 15:48:00,
2013-04-04 11:53:00,43.5,12.5,30.19,SW,234,2.0,6.0,28,0.00,,,0.00,Wunderground v.1.15,2013-04-04 15:53:00,
2013-04-04 11:58:00,43.9,12.8,30.19,WSW,248,0.0,2.0,28,0.00,,,0.00,Wunderground v.1.15,2013-04-04 15:58:00,
2013-04-04 12:03:00,44.1,13.0,30.19,SSE,167,0.0,2.0,28,0.00,,,0.00,Wunderground v.1.15,2013-04-04 16:03:00,
2013-04-04 12:09:00,44.9,12.9,30.19,SW,224,2.0,2.0,27,0.00,,,0.00,Wunderground v.1.15,2013-04-04 16:09:00,
2013-04-04 12:14:00,44.9,13.7,30.18,SW,225,0.0,7.0,28,0.00,,,0.00,Wunderground v.1.15,2013-04-04 16:14:00,
2013-04-04 12:19:00,45.4,9.7,30.18,WSW,241,1.0,2.0,23,0.00,,,0.00,Wunderground v.1.15,2013-04-04 16:19:00,
2013-04-04 12:24:00,45.5,9.8,30.18,SW,214,1.0,2.0,23,0.00,,,0.00,Wunderground v.1.15,2013-04-04 16:24:00,
2013-04-04 12:29:00,45.7,10.9,30.17,SSW,194,0.0,2.0,24,0.00,,,0.00,Wunderground v.1.15,2013-04-04 16:29:00,
2013-04-04 12:35:00,45.8,10.0,30.17,West,263,0.0,6.0,23,0.00,,,0.00,Wunderground v.1.15,2013-04-04 16:35:00,
2013-04-04 12:40:00,46.7,10.8,30.17,SE,131,0.0,2.0,23,0.00,,,0.00,Wunderground v.1.15,2013-04-04 16:40:00,
2013-04-04 12:45:00,45.8,11.0,30.16,WSW,239,1.0,1.0,24,0.00,,,0.00,Wunderground v.1.15,2013-04-04 16:45:00,
2013-04-04 12:50:00,46.2,11.3,30.16,SSW,201,2.0,2.0,24,0.00,,,0.00,Wunderground v.1.15,2013-04-04 16:50:00,
2013-04-04 12:56:00,46.5,14.3,30.16,SW,227,2.0,2.0,27,0.00,,,0.00,Wunderground v.1.15,2013-04-04 16:56:00,
2013-04-04 13:01:00,46.7,11.8,30.16,WNW,290,1.0,4.0,24,0.00,,,0.00,Wunderground v.1.15,2013-04-04 17:01:00,
2013-04-04 13:06:00,47.1,12.1,30.16,SSW,213,4.0,4.0,24,0.00,,,0.00,Wunderground v.1.15,2013-04-04 17:06:00,
2013-04-04 13:12:00,47.4,13.3,30.15,SW,222,2.0,4.0,25,0.00,,,0.00,Wunderground v.1.15,2013-04-04 17:12:00,
2013-04-04 13:17:00,47.7,11.6,30.15,SW,234,4.0,6.0,23,0.00,,,0.00,Wunderground v.1.15,2013-04-04 17:17:00,
2013-04-04 13:22:00,47.4,12.4,30.15,WSW,246,1.0,6.0,24,0.00,,,0.00,Wunderground v.1.15,2013-04-04 17:22:00,
2013-04-04 13:27:00,48.6,12.4,30.14,SSW,211,1.0,4.0,23,0.00,,,0.00,Wunderground v.1.15,2013-04-04 17:27:00,
2013-04-04 13:32:00,48.5,10.3,30.14,SW,222,0.0,7.0,21,0.00,,,0.00,Wunderground v.1.15,2013-04-04 17:32:00,
2013-04-04 13:38:00,48.6,15.2,30.14,SW,214,2.0,4.0,26,0.00,,,0.00,Wunderground v.1.15,2013-04-04 17:38:00,
2013-04-04 13:43:00,49.1,16.5,30.13,SSW,210,0.0,4.0,27,0.00,,,0.00,Wunderground v.1.15,2013-04-04 17:43:00,
2013-04-04 13:48:00,50.1,12.7,30.13,SSE,156,4.0,4.0,22,0.00,,,0.00,Wunderground v.1.15,2013-04-04 17:48:00,
2013-04-04 13:53:00,49.8,12.4,30.13,SE,139,1.0,4.0,22,0.00,,,0.00,Wunderground v.1.15,2013-04-04 17:53:00,
2013-04-04 13:58:00,50.2,12.8,30.13,SW,235,1.0,6.0,22,0.00,,,0.00,Wunderground v.1.15,2013-04-04 17:58:00,
2013-04-04 14:03:00,50.1,13.7,30.13,SSE,152,1.0,6.0,23,0.00,,,0.00,Wunderground v.1.15,2013-04-04 18:03:00,
2013-04-04 14:08:00,50.5,10.9,30.13,SSE,148,0.0,2.0,20,0.00,,,0.00,Wunderground v.1.15,2013-04-04 18:08:00,
2013-04-04 14:13:00,50.1,15.6,30.11,SSE,148,0.0,2.0,25,0.00,,,0.00,Wunderground v.1.15,2013-04-04 18:13:00,
2013-04-04 14:18:00,50.1,11.6,30.11,SSW,210,0.0,6.0,21,0.00,,,0.00,Wunderground v.1.15,2013-04-04 18:18:00,
2013-04-04 14:24:00,51.3,11.5,30.11,South,184,1.0,6.0,20,0.00,,,0.00,Wunderground v.1.15,2013-04-04 18:24:00,
2013-04-04 14:29:00,51.7,13.0,30.10,ESE,108,0.0,7.0,21,0.00,,,0.00,Wunderground v.1.15,2013-04-04 18:29:00,
2013-04-04 14:34:00,52.0,13.2,30.10,SE,142,1.0,7.0,21,0.00,,,0.00,Wunderground v.1.15,2013-04-04 18:34:00,
2013-04-04 14:39:00,51.7,11.9,30.10,SW,215,0.0,6.0,20,0.00,,,0.00,Wunderground v.1.15,2013-04-04 18:39:00,
2013-04-04 14:44:00,51.6,10.6,30.09,SW,224,4.0,7.0,19,0.00,,,0.00,Wunderground v.1.15,2013-04-04 18:44:00,
2013-04-04 14:49:00,51.7,9.5,30.09,SSE,166,1.0,2.0,18,0.00,,,0.00,Wunderground v.1.15,2013-04-04 18:49:00,
2013-04-04 14:54:00,52.0,14.3,30.09,South,177,0.0,4.0,22,0.00,,,0.00,Wunderground v.1.15,2013-04-04 18:54:00,
2013-04-04 15:00:00,51.3,11.5,30.09,WSW,246,2.0,2.0,20,0.00,,,0.00,Wunderground v.1.15,2013-04-04 19:00:00,
2013-04-04 15:05:00,51.3,12.6,30.09,South,169,2.0,6.0,21,0.00,,,0.00,Wunderground v.1.15,2013-04-04 19:05:00,
2013-04-04 15:10:00,51.4,11.6,30.09,SE,131,6.0,6.0,20,0.00,,,0.00,Wunderground v.1.15,2013-04-04 19:10:00,
2013-04-04 15:15:00,51.3,11.5,30.08,SE,134,0.0,2.0,20,0.00,,,0.00,Wunderground v.1.15,2013-04-04 19:15:00,
2013-04-04 15:20:00,51.6,12.9,30.08,SSW,200,2.0,6.0,21,0.00,,,0.00,Wunderground v.1.15,2013-04-04 19:20:00,
2013-04-04 15:25:00,51.9,15.2,30.08,South,186,2.0,2.0,23,0.00,,,0.00,Wunderground v.1.15,2013-04-04 19:25:00,
2013-04-04 15:30:00,51.7,11.9,30.07,SSE,155,2.0,6.0,20,0.00,,,0.00,Wunderground v.1.15,2013-04-04 19:30:00,
2013-04-04 15:35:00,51.7,10.7,30.07,SSW,210,4.0,4.0,19,0.00,,,0.00,Wunderground v.1.15,2013-04-04 19:35:00,
2013-04-04 15:41:00,51.9,12.0,30.07,SSW,206,0.0,4.0,20,0.00,,,0.00,Wunderground v.1.15,2013-04-04 19:41:00,
2013-04-04 15:46:00,52.0,12.1,30.06,SE,124,0.0,1.0,20,0.00,,,0.00,Wunderground v.1.15,2013-04-04 19:46:00,
2013-04-04 15:51:00,52.2,9.9,30.06,SSE,158,2.0,8.0,18,0.00,,,0.00,Wunderground v.1.15,2013-04-04 19:51:00,
2013-04-04 15:56:00,52.0,9.7,30.05,SE,146,4.0,4.0,18,0.00,,,0.00,Wunderground v.1.15,2013-04-04 19:56:00,
2013-04-04 16:01:00,51.9,14.2,30.05,SE,132,1.0,4.0,22,0.00,,,0.00,Wunderground v.1.15,2013-04-04 20:01:00,
2013-04-04 16:06:00,51.6,13.9,30.05,SE,132,2.0,2.0,22,0.00,,,0.00,Wunderground v.1.15,2013-04-04 20:06:00,
2013-04-04 16:12:00,51.9,10.9,30.04,South,183,1.0,7.0,19,0.00,,,0.00,Wunderground v.1.15,2013-04-04 20:12:00,
2013-04-04 16:17:00,52.0,18.1,30.04,South,183,1.0,2.0,26,0.00,,,0.00,Wunderground v.1.15,2013-04-04 20:17:00,
2013-04-04 16:22:00,52.3,12.4,30.04,SSE,163,1.0,4.0,20,0.00,,,0.00,Wunderground v.1.15,2013-04-04 20:22:00,
2013-04-04 16:27:00,52.6,12.6,30.03,SSE,152,1.0,2.0,20,0.00,,,0.00,Wunderground v.1.15,2013-04-04 20:27:00,
2013-04-04 16:32:00,52.6,11.4,30.03,South,183,0.0,2.0,19,0.00,,,0.00,Wunderground v.1.15,2013-04-04 20:32:00,
2013-04-04 16:37:00,52.3,12.4,30.03,SW,217,1.0,2.0,20,0.00,,,0.00,Wunderground v.1.15,2013-04-04 20:37:00,
2013-04-04 16:42:00,52.0,14.3,30.02,SE,134,1.0,7.0,22,0.00,,,0.00,Wunderground v.1.15,2013-04-04 20:42:00,
2013-04-04 16:47:00,52.0,16.3,30.02,SE,142,0.0,2.0,24,0.00,,,0.00,Wunderground v.1.15,2013-04-04 20:47:00,
2013-04-04 16:52:00,51.9,17.1,30.02,SE,145,0.0,2.0,25,0.00,,,0.00,Wunderground v.1.15,2013-04-04 20:52:00,
2013-04-04 16:57:00,52.0,17.2,30.01,SSW,196,1.0,2.0,25,0.00,,,0.00,Wunderground v.1.15,2013-04-04 20:57:00,
2013-04-04 17:02:00,52.5,12.5,30.01,SSE,160,0.0,2.0,20,0.00,,,0.00,Wunderground v.1.15,2013-04-04 21:02:00,
2013-04-04 17:08:00,52.5,14.7,30.01,SSW,197,0.0,6.0,22,0.00,,,0.00,Wunderground v.1.15,2013-04-04 21:08:00,
2013-04-04 17:13:00,52.3,14.5,30.01,SE,142,6.0,6.0,22,0.00,,,0.00,Wunderground v.1.15,2013-04-04 21:13:00,
2013-04-04 17:18:00,52.3,16.5,30.01,SW,220,2.0,4.0,24,0.00,,,0.00,Wunderground v.1.15,2013-04-04 21:18:00,
2013-04-04 17:24:00,52.2,16.4,30.01,South,169,1.0,4.0,24,0.00,,,0.00,Wunderground v.1.15,2013-04-04 21:24:00,
2013-04-04 17:29:00,52.5,16.7,30.00,SW,234,4.0,7.0,24,0.00,,,0.00,Wunderground v.1.15,2013-04-04 21:29:00,
2013-04-04 17:34:00,52.2,14.4,30.00,South,172,2.0,7.0,22,0.00,,,0.00,Wunderground v.1.15,2013-04-04 21:34:00,
2013-04-04 17:39:00,52.0,15.3,30.00,SW,220,2.0,8.0,23,0.00,,,0.00,Wunderground v.1.15,2013-04-04 21:39:00,
2013-04-04 17:44:00,51.9,14.2,30.00,SSE,153,1.0,8.0,22,0.00,,,0.00,Wunderground v.1.15,2013-04-04 21:44:00,
2013-04-04 17:49:00,51.7,16.0,30.00,SSE,167,1.0,4.0,24,0.00,,,0.00,Wunderground v.1.15,2013-04-04 21:49:00,
2013-04-04 17:54:00,51.3,14.7,30.00,SSW,208,2.0,4.0,23,0.00,,,0.00,Wunderground v.1.15,2013-04-04 21:54:00,
2013-04-04 17:59:00,51.0,14.4,30.00,SSW,210,2.0,4.0,23,0.00,,,0.00,Wunderground v.1.15,2013-04-04 21:59:00,
2013-04-04 18:04:00,50.8,14.3,30.00,SSW,193,0.0,4.0,23,0.00,,,0.00,Wunderground v.1.15,2013-04-04 22:04:00,
2013-04-04 18:10:00,51.0,12.4,30.00,SE,142,0.0,6.0,21,0.00,,,0.00,Wunderground v.1.15,2013-04-04 22:10:00,
2013-04-04 18:15:00,50.5,14.0,30.00,SSE,153,2.0,2.0,23,0.00,,,0.00,Wunderground v.1.15,2013-04-04 22:15:00,
2013-04-04 18:20:00,50.7,14.2,30.00,ESE,112,2.0,4.0,23,0.00,,,0.00,Wunderground v.1.15,2013-04-04 22:20:00,
2013-04-04 18:25:00,50.7,14.2,30.00,SSE,166,1.0,2.0,23,0.00,,,0.00,Wunderground v.1.15,2013-04-04 22:25:00,
2013-04-04 18:30:00,50.5,15.9,30.01,SSE,160,0.0,2.0,25,0.00,,,0.00,Wunderground v.1.15,2013-04-04 22:30:00,
2013-04-04 18:35:00,50.2,17.5,30.01,SE,141,1.0,6.0,27,0.00,,,0.00,Wunderground v.1.15,2013-04-04 22:35:00,
2013-04-04 18:41:00,49.9,14.5,30.01,SE,145,0.0,6.0,24,0.00,,,0.00,Wunderground v.1.15,2013-04-04 22:41:00,
2013-04-04 18:46:00,49.9,14.5,30.01,South,169,0.0,1.0,24,0.00,,,0.00,Wunderground v.1.15,2013-04-04 22:46:00,
2013-04-04 18:51:00,49.4,15.0,30.01,SSE,150,1.0,2.0,25,0.00,,,0.00,Wunderground v.1.15,2013-04-04 22:51:00,
2013-04-04 18:56:00,49.1,14.7,30.00,SSE,167,0.0,2.0,25,0.00,,,0.00,Wunderground v.1.15,2013-04-04 22:56:00,
2013-04-04 19:02:00,49.1,13.8,30.00,SSE,165,0.0,2.0,24,0.00,,,0.00,Wunderground v.1.15,2013-04-04 23:02:00,
2013-04-04 19:07:00,48.9,14.6,30.00,SSE,165,0.0,1.0,25,0.00,,,0.00,Wunderground v.1.15,2013-04-04 23:07:00,
2013-04-04 19:12:00,48.6,15.2,30.00,SSE,156,2.0,2.0,26,0.00,,,0.00,Wunderground v.1.15,2013-04-04 23:12:00,
2013-04-04 19:17:00,48.2,14.0,30.00,SE,138,1.0,1.0,25,0.00,,,0.00,Wunderground v.1.15,2013-04-04 23:17:00,
2013-04-04 19:22:00,48.0,13.8,30.00,SE,138,0.0,1.0,25,0.00,,,0.00,Wunderground v.1.15,2013-04-04 23:22:00,
2013-04-04 19:27:00,47.7,15.3,30.00,SE,138,1.0,1.0,27,0.00,,,0.00,Wunderground v.1.15,2013-04-04 23:27:00,
2013-04-04 19:32:00,46.7,17.6,30.00,SE,138,0.0,1.0,31,0.00,,,0.00,Wunderground v.1.15,2013-04-04 23:32:00,
2013-04-04 19:37:00,45.4,20.0,30.00,SE,138,0.0,0.0,36,0.00,,,0.00,Wunderground v.1.15,2013-04-04 23:37:00,
2013-04-04 19:42:00,43.9,18.6,30.01,SE,138,0.0,0.0,36,0.00,,,0.00,Wunderground v.1.15,2013-04-04 23:42:00,
2013-04-04 19:47:00,42.9,19.6,30.01,SE,138,0.0,0.0,39,0.00,,,0.00,Wunderground v.1.15,2013-04-04 23:47:00,
2013-04-04 19:53:00,42.2,19.0,30.01,SE,138,0.0,0.0,39,0.00,,,0.00,Wunderground v.1.15,2013-04-04 23:53:00,
2013-04-04 19:58:00,42.1,20.6,30.01,SE,138,0.0,0.0,42,0.00,,,0.00,Wunderground v.1.15,2013-04-04 23:58:00,
2013-04-04 20:03:00,41.2,20.9,30.01,SE,138,0.0,0.0,44,0.00,,,0.00,Wunderground v.1.15,2013-04-05 00:03:00,
2013-04-04 20:09:00,40.6,21.4,30.01,SE,138,0.0,0.0,46,0.00,,,0.00,Wunderground v.1.15,2013-04-05 00:09:00,
2013-04-04 20:14:00,40.5,21.8,30.00,SE,138,0.0,0.0,47,0.00,,,0.00,Wunderground v.1.15,2013-04-05 00:14:00,
2013-04-04 20:19:00,40.8,20.0,30.00,SE,138,0.0,0.0,43,0.00,,,0.00,Wunderground v.1.15,2013-04-05 00:19:00,
2013-04-04 20:24:00,40.8,20.0,30.00,SE,138,0.0,0.0,43,0.00,,,0.00,Wunderground v.1.15,2013-04-05 00:24:00,
2013-04-04 20:29:00,40.5,20.3,30.00,SE,138,0.0,0.0,44,0.00,,,0.00,Wunderground v.1.15,2013-04-05 00:29:00,
2013-04-04 20:34:00,39.9,20.3,30.00,SE,138,0.0,0.0,45,0.00,,,0.00,Wunderground v.1.15,2013-04-05 00:34:00,
2013-04-04 20:39:00,39.3,22.2,30.00,SE,138,0.0,0.0,50,0.00,,,0.00,Wunderground v.1.15,2013-04-05 00:39:00,
2013-04-04 20:45:00,39.3,21.7,30.00,SE,138,0.0,0.0,49,0.00,,,0.00,Wunderground v.1.15,2013-04-05 00:45:00,
2013-04-04 20:50:00,38.9,22.3,30.00,SE,138,0.0,0.0,51,0.00,,,0.00,Wunderground v.1.15,2013-04-05 00:50:00,
2013-04-04 20:55:00,38.5,21.9,30.00,SE,138,0.0,0.0,51,0.00,,,0.00,Wunderground v.1.15,2013-04-05 00:55:00,
2013-04-04 21:00:00,38.2,23.0,30.00,SE,138,0.0,0.0,54,0.00,,,0.00,Wunderground v.1.15,2013-04-05 01:00:00,
2013-04-04 21:06:00,37.8,23.1,30.00,SE,138,0.0,0.0,55,0.00,,,0.00,Wunderground v.1.15,2013-04-05 01:06:00,
2013-04-04 21:11:00,37.3,23.9,30.00,SE,138,0.0,0.0,58,0.00,,,0.00,Wunderground v.1.15,2013-04-05 01:11:00,
2013-04-04 21:17:00,37.2,24.2,30.00,SE,138,0.0,0.0,59,0.00,,,0.00,Wunderground v.1.15,2013-04-05 01:17:00,
2013-04-04 21:22:00,36.8,25.0,30.00,SE,138,0.0,0.0,62,0.00,,,0.00,Wunderground v.1.15,2013-04-05 01:22:00,
2013-04-04 21:27:00,36.8,23.4,30.00,SE,138,1.0,1.0,58,0.00,,,0.00,Wunderground v.1.15,2013-04-05 01:27:00,
2013-04-04 21:32:00,38.2,19.7,30.00,SE,138,0.0,1.0,47,0.00,,,0.00,Wunderground v.1.15,2013-04-05 01:32:00,
2013-04-04 21:37:00,39.6,18.9,30.00,SE,138,0.0,1.0,43,0.00,,,0.00,Wunderground v.1.15,2013-04-05 01:37:00,
2013-04-04 21:42:00,40.5,19.2,30.00,SSE,159,1.0,2.0,42,0.00,,,0.00,Wunderground v.1.15,2013-04-05 01:42:00,
2013-04-04 21:47:00,41.1,19.7,30.00,SSW,194,1.0,1.0,42,0.00,,,0.00,Wunderground v.1.15,2013-04-05 01:47:00,
2013-04-04 21:53:00,41.8,20.4,30.00,SSE,155,1.0,2.0,42,0.00,,,0.00,Wunderground v.1.15,2013-04-05 01:53:00,
2013-04-04 21:58:00,41.9,19.3,29.99,SSE,155,1.0,1.0,40,0.00,,,0.00,Wunderground v.1.15,2013-04-05 01:58:00,
2013-04-04 22:03:00,42.1,20.1,29.99,SSE,155,0.0,1.0,41,0.00,,,0.00,Wunderground v.1.15,2013-04-05 02:03:00,
2013-04-04 22:08:00,41.9,20.4,29.99,SSE,155,0.0,1.0,42,0.00,,,0.00,Wunderground v.1.15,2013-04-05 02:08:00,
2013-04-04 22:13:00,41.6,20.7,29.98,SSE,155,0.0,1.0,43,0.00,,,0.00,Wunderground v.1.15,2013-04-05 02:13:00,
2013-04-04 22:18:00,41.3,21.5,29.98,SSE,155,0.0,1.0,45,0.00,,,0.00,Wunderground v.1.15,2013-04-05 02:18:00,
2013-04-04 22:24:00,41.3,19.9,29.98,SSE,155,0.0,1.0,42,0.00,,,0.00,Wunderground v.1.15,2013-04-05 02:24:00,
2013-04-04 22:29:00,41.1,20.3,29.98,SSE,155,0.0,0.0,43,0.00,,,0.00,Wunderground v.1.15,2013-04-05 02:29:00,
2013-04-04 22:34:00,40.8,20.0,29.98,SSE,155,0.0,1.0,43,0.00,,,0.00,Wunderground v.1.15,2013-04-05 02:34:00,
2013-04-04 22:39:00,40.3,22.6,29.98,SSE,155,0.0,1.0,49,0.00,,,0.00,Wunderground v.1.15,2013-04-05 02:39:00,
2013-04-04 22:44:00,39.8,22.7,29.98,SSE,155,0.0,1.0,50,0.00,,,0.00,Wunderground v.1.15,2013-04-05 02:44:00,
2013-04-04 22:49:00,39.6,23.4,29.98,SSE,155,0.0,0.0,52,0.00,,,0.00,Wunderground v.1.15,2013-04-05 02:49:00,
2013-04-04 22:55:00,39.1,22.9,29.98,SSE,155,0.0,1.0,52,0.00,,,0.00,Wunderground v.1.15,2013-04-05 02:55:00,
2013-04-04 23:00:00,38.9,22.3,29.98,SSE,155,0.0,1.0,51,0.00,,,0.00,Wunderground v.1.15,2013-04-05 03:00:00,
2013-04-04 23:05:00,38.9,21.8,29.98,SSE,155,0.0,1.0,50,0.00,,,0.00,Wunderground v.1.15,2013-04-05 03:05:00,
2013-04-04 23:10:00,39.2,22.1,29.98,SSE,155,0.0,1.0,50,0.00,,,0.00,Wunderground v.1.15,2013-04-05 03:10:00,
2013-04-04 23:15:00,39.2,22.1,29.97,SSE,155,0.0,0.0,50,0.00,,,0.00,Wunderground v.1.15,2013-04-05 03:15:00,
2013-04-04 23:20:00,38.5,23.3,29.97,SSE,155,0.0,0.0,54,0.00,,,0.00,Wunderground v.1.15,2013-04-05 03:20:00,
2013-04-04 23:25:00,37.8,23.5,29.97,SSE,155,0.0,0.0,56,0.00,,,0.00,Wunderground v.1.15,2013-04-05 03:25:00,
2013-04-04 23:31:00,37.3,23.4,29.96,SSE,155,0.0,0.0,57,0.00,,,0.00,Wunderground v.1.15,2013-04-05 03:31:00,
2013-04-04 23:36:00,37.2,23.8,29.96,SSE,155,0.0,0.0,58,0.00,,,0.00,Wunderground v.1.15,2013-04-05 03:36:00,
2013-04-04 23:41:00,36.6,24.4,29.96,SSE,155,0.0,0.0,61,0.00,,,0.00,Wunderground v.1.15,2013-04-05 03:41:00,
2013-04-04 23:46:00,36.0,23.8,29.96,SSE,155,0.0,0.0,61,0.00,,,0.00,Wunderground v.1.15,2013-04-05 03:46:00,
2013-04-04 23:51:00,35.9,23.4,29.96,SSE,155,0.0,0.0,60,0.00,,,0.00,Wunderground v.1.15,2013-04-05 03:51:00,
2013-04-04 23:56:00,35.9,23.4,29.96,SSE,155,0.0,0.0,60,0.00,,,0.00,Wunderground v.1.15,2013-04-05 03:56:00,